Time;durP1;ratioP1;P1;durP2;ratioP2;P2;SDS_P1;SDS_P2;PMS_P1;PMS_P2;Temp;Humidity;BMP_temperature;BMP_pressure;BME280_temperature;BME280_humidity;BME280_pressure;Samples;Min_cycle;Max_cycle;Signal;HPM_P1;HPM_P2
2022/11/05 00:09:36;;;;;;;2.20;1.93;;;21.90;99.20;;;;;;5031987;28;20771;-47
2022/11/05 00:17:37;;;;;;;3.50;2.03;;;22.00;99.20;;;;;;5032365;28;20473;-42
2022/11/05 00:20:05;;;;;;;3.73;2.17;;;22.00;99.20;;;;;;5033795;28;20484;-42
2022/11/05 00:25:16;;;;;;;2.97;1.90;;;22.00;99.00;;;;;;5037429;28;20450;-42
2022/11/05 00:27:48;;;;;;;4.00;1.77;;;21.90;99.00;;;;;;5031987;28;20455;-42
2022/11/05 00:30:17;;;;;;;4.40;1.70;;;21.90;99.10;;;;;;5039126;28;20474;-42
2022/11/05 00:32:47;;;;;;;2.17;2.00;;;21.90;99.20;;;;;;5034132;28;20520;-42
2022/11/05 00:35:15;;;;;;;2.17;1.80;;;21.90;99.10;;;;;;5042405;28;20471;-42
2022/11/05 00:37:42;;;;;;;3.33;1.83;;;21.80;99.10;;;;;;5041879;28;20454;-42
2022/11/05 00:40:11;;;;;;;2.50;1.77;;;21.80;99.10;;;;;;5040825;28;20489;-42
2022/11/05 00:45:25;;;;;;;2.70;1.60;;;21.70;99.20;;;;;;5034387;28;20907;-42
2022/11/05 00:50:37;;;;;;;2.90;1.57;;;21.70;99.30;;;;;;5046542;28;20484;-42
2022/11/05 00:53:05;;;;;;;2.47;1.63;;;21.60;99.40;;;;;;5041023;28;20460;-42
2022/11/05 00:55:36;;;;;;;3.20;1.80;;;21.60;99.50;;;;;;5040028;28;20195;-42
2022/11/05 00:58:05;;;;;;;2.35;1.30;;;21.50;99.60;;;;;;5034921;28;20458;-42
2022/11/05 01:00:34;;;;;;;1.70;1.60;;;21.50;99.70;;;;;;5029378;28;20207;-42
2022/11/05 01:03:04;;;;;;;2.17;1.70;;;21.50;99.90;;;;;;5039221;28;20213;-42
2022/11/05 01:05:32;;;;;;;2.30;1.80;;;21.40;99.90;;;;;;5041632;28;20206;-42
2022/11/05 01:07:59;;;;;;;1.60;1.43;;;21.30;99.90;;;;;;5032049;28;20199;-42
2022/11/05 01:10:27;;;;;;;1.55;1.45;;;21.30;99.90;;;;;;5030935;28;20489;-43
2022/11/05 01:12:54;;;;;;;1.33;1.23;;;21.30;99.90;;;;;;5036557;28;20677;-42
2022/11/05 01:15:21;;;;;;;1.92;1.65;;;21.20;99.90;;;;;;5035840;28;20475;-42
2022/11/05 01:17:47;;;;;;;1.87;1.60;;;21.20;99.90;;;;;;5031113;28;20227;-43
2022/11/05 01:20:16;;;;;;;1.83;1.70;;;21.20;99.90;;;;;;5038268;28;20466;-43
2022/11/05 01:22:43;;;;;;;1.80;1.23;;;21.20;99.90;;;;;;5039508;28;20194;-42
2022/11/05 01:25:10;;;;;;;6.00;2.00;;;21.20;99.90;;;;;;5045889;28;20662;-43
2022/11/05 01:27:37;;;;;;;1.90;1.60;;;21.20;99.90;;;;;;5029827;28;20533;-42
2022/11/05 01:30:06;;;;;;;7.40;2.20;;;21.20;99.90;;;;;;5031366;28;20694;-43
2022/11/05 01:32:33;;;;;;;2.00;1.80;;;21.20;99.90;;;;;;5030362;28;20202;-42
2022/11/05 01:35:00;;;;;;;2.10;1.55;;;21.20;99.90;;;;;;5042494;28;20458;-43
2022/11/05 01:37:28;;;;;;;2.40;1.70;;;21.20;99.90;;;;;;5040576;28;20638;-42
2022/11/05 01:39:54;;;;;;;3.05;1.98;;;21.20;99.90;;;;;;5048268;28;20211;-42
2022/11/05 01:42:23;;;;;;;1.60;1.50;;;21.20;99.90;;;;;;5036161;28;20202;-43
2022/11/05 01:44:58;;;;;;;3.03;2.05;;;21.10;99.90;;;;;;5039127;28;20188;-42
2022/11/05 01:47:34;;;;;;;1.70;1.60;;;21.10;99.90;;;;;;5029697;28;20206;-42
2022/11/05 01:50:05;;;;;;;1.70;1.60;;;21.10;99.90;;;;;;5041801;28;20211;-43
2022/11/05 01:52:34;;;;;;;1.60;1.42;;;21.10;99.90;;;;;;5027997;28;20655;-42
2022/11/05 01:55:02;;;;;;;1.60;1.40;;;21.10;99.90;;;;;;5042040;28;20248;-43
2022/11/05 01:57:30;;;;;;;1.63;1.52;;;21.00;99.90;;;;;;5037070;28;20388;-42
2022/11/05 01:59:59;;;;;;;1.60;1.30;;;21.00;99.90;;;;;;5034295;28;20218;-42
2022/11/05 02:02:26;;;;;;;1.67;1.58;;;21.00;99.90;;;;;;5031595;28;20203;-42
2022/11/05 02:04:55;;;;;;;1.50;1.40;;;21.00;99.90;;;;;;5038373;28;20662;-42
2022/11/05 02:07:23;;;;;;;1.58;1.48;;;21.00;99.90;;;;;;5040689;28;20191;-42
2022/11/05 02:09:56;;;;;;;1.55;1.40;;;20.90;99.90;;;;;;5029691;28;20223;-42
2022/11/05 02:12:23;;;;;;;1.92;1.58;;;20.90;99.90;;;;;;5032778;28;20219;-42
2022/11/05 02:14:50;;;;;;;1.92;1.73;;;20.90;99.90;;;;;;5034135;28;20188;-43
2022/11/05 02:17:25;;;;;;;1.70;1.60;;;20.90;99.90;;;;;;5030458;28;20216;-43
2022/11/05 02:20:11;;;;;;;1.60;1.50;;;20.80;99.90;;;;;;5033191;28;20661;-42
2022/11/05 02:23:07;;;;;;;1.98;1.60;;;20.80;99.90;;;;;;5038903;28;20195;-42
2022/11/05 02:26:02;;;;;;;1.77;1.48;;;20.80;99.90;;;;;;5043857;28;20667;-42
2022/11/05 02:28:53;;;;;;;2.20;1.52;;;20.70;99.90;;;;;;5035023;28;20191;-43
2022/11/05 02:31:28;;;;;;;1.80;1.48;;;20.70;99.90;;;;;;5036883;28;20231;-43
2022/11/05 02:34:02;;;;;;;1.98;1.55;;;20.70;99.90;;;;;;5032704;28;20200;-43
2022/11/05 02:36:38;;;;;;;1.58;1.48;;;20.60;99.90;;;;;;5031812;28;20673;-43
2022/11/05 02:39:22;;;;;;;1.52;1.42;;;20.60;99.90;;;;;;5040124;28;20195;-42
2022/11/05 02:42:01;;;;;;;1.75;1.65;;;20.60;99.90;;;;;;5033353;28;20277;-42
2022/11/05 02:44:35;;;;;;;1.48;1.38;;;20.60;99.90;;;;;;5042510;28;20191;-43
2022/11/05 02:47:12;;;;;;;1.75;1.65;;;20.50;99.90;;;;;;5038266;28;20195;-42
2022/11/05 02:49:46;;;;;;;1.70;1.35;;;20.50;99.90;;;;;;5050904;28;20219;-42
2022/11/05 02:52:19;;;;;;;1.73;1.50;;;20.40;99.90;;;;;;5046372;28;20203;-43
2022/11/05 02:54:53;;;;;;;1.60;1.50;;;20.40;99.90;;;;;;5036007;28;20506;-43
2022/11/05 02:57:21;;;;;;;2.70;1.80;;;20.40;99.90;;;;;;5038820;28;20195;-42
2022/11/05 02:59:47;;;;;;;1.88;1.25;;;20.40;99.90;;;;;;5037507;28;20549;-42
2022/11/05 03:02:15;;;;;;;1.58;1.48;;;20.30;99.90;;;;;;5034273;28;20199;-43
2022/11/05 03:04:42;;;;;;;1.58;1.48;;;20.30;99.90;;;;;;5035925;28;20200;-42
2022/11/05 03:07:30;;;;;;;1.50;1.40;;;20.30;99.90;;;;;;5031672;28;20205;-42
2022/11/05 03:10:18;;;;;;;2.00;1.90;;;20.30;99.90;;;;;;5037898;28;20211;-43
2022/11/05 03:12:57;;;;;;;1.73;1.60;;;20.30;99.90;;;;;;5033991;28;20195;-42
2022/11/05 03:15:36;;;;;;;1.60;1.27;;;20.30;99.90;;;;;;5035961;28;20196;-42
2022/11/05 03:18:10;;;;;;;2.22;1.58;;;20.20;99.90;;;;;;5030585;28;20246;-42
2022/11/05 03:20:40;;;;;;;1.60;1.50;;;20.20;99.90;;;;;;5035072;28;20231;-42
2022/11/05 03:23:14;;;;;;;1.67;1.40;;;20.20;99.90;;;;;;5031794;28;20374;-42
2022/11/05 03:25:46;;;;;;;1.80;1.70;;;20.20;99.90;;;;;;5040826;28;20831;-42
2022/11/05 03:28:14;;;;;;;1.55;1.45;;;20.20;99.90;;;;;;5036595;28;21711;-42
2022/11/05 03:30:42;;;;;;;1.60;1.50;;;20.20;99.90;;;;;;5035598;28;20222;-43
2022/11/05 03:33:16;;;;;;;2.03;1.50;;;20.10;99.90;;;;;;5036143;28;20226;-42
2022/11/05 03:35:47;;;;;;;1.40;1.20;;;20.10;99.90;;;;;;5031488;28;20211;-42
2022/11/05 03:38:20;;;;;;;1.67;1.58;;;20.10;99.90;;;;;;5031350;28;20677;-43
2022/11/05 03:40:51;;;;;;;1.92;1.83;;;20.10;99.90;;;;;;5042694;28;20207;-42
2022/11/05 03:43:20;;;;;;;2.00;1.83;;;20.10;99.90;;;;;;5040488;28;20531;-42
2022/11/05 03:45:52;;;;;;;1.55;1.45;;;20.10;99.90;;;;;;5039133;28;20195;-43
2022/11/05 03:48:25;;;;;;;1.88;1.77;;;20.00;99.90;;;;;;5038297;28;20215;-43
2022/11/05 03:50:59;;;;;;;1.65;1.55;;;20.00;99.90;;;;;;5031419;28;20227;-42
2022/11/05 03:53:29;;;;;;;1.55;1.45;;;20.00;99.90;;;;;;5033168;28;20195;-42
2022/11/05 03:56:01;;;;;;;1.42;1.33;;;20.00;99.90;;;;;;5035014;28;20187;-42
2022/11/05 03:58:29;;;;;;;1.40;1.30;;;20.00;99.90;;;;;;5033814;28;20862;-42
2022/11/05 04:00:56;;;;;;;1.85;1.75;;;19.90;99.90;;;;;;5037969;28;20214;-43
2022/11/05 04:03:24;;;;;;;1.42;1.33;;;19.90;99.90;;;;;;5036046;28;20516;-42
2022/11/05 04:13:59;;;;;;;1.48;1.38;;;19.80;99.90;;;;;;5036024;28;20295;-42
2022/11/05 04:19:12;;;;;;;1.95;1.80;;;19.80;99.90;;;;;;5031121;28;20587;-42
2022/11/05 04:24:23;;;;;;;1.42;1.33;;;19.70;99.90;;;;;;5034029;28;20262;-43
2022/11/05 04:26:49;;;;;;;1.80;1.70;;;19.70;99.90;;;;;;5030490;28;20218;-43
2022/11/05 04:32:00;;;;;;;1.77;1.50;;;19.60;99.90;;;;;;5029940;28;20261;-43
2022/11/05 04:34:28;;;;;;;1.40;1.30;;;19.60;99.90;;;;;;5036268;28;20195;-42
2022/11/05 04:36:55;;;;;;;2.20;1.30;;;19.60;99.90;;;;;;5029823;28;20208;-42
2022/11/05 04:39:22;;;;;;;1.73;1.50;;;19.60;99.90;;;;;;5031516;28;20215;-43
2022/11/05 04:41:48;;;;;;;1.30;1.10;;;19.60;99.90;;;;;;5031385;28;20406;-42
2022/11/05 04:44:15;;;;;;;1.73;1.63;;;19.80;99.90;;;;;;5040656;28;20227;-42
2022/11/05 04:46:42;;;;;;;1.60;1.50;;;20.20;99.90;;;;;;5036177;28;20221;-42
2022/11/05 04:49:09;;;;;;;1.30;1.20;;;20.20;99.90;;;;;;5034601;28;20203;-43
2022/11/05 04:51:37;;;;;;;2.03;1.73;;;20.20;99.90;;;;;;5031992;28;20575;-42
2022/11/05 04:54:04;;;;;;;1.60;1.50;;;20.00;99.90;;;;;;5037254;28;20195;-42
2022/11/05 04:56:31;;;;;;;3.42;1.85;;;20.00;99.90;;;;;;5040344;28;20196;-42
2022/11/05 04:58:57;;;;;;;1.50;1.40;;;19.90;99.90;;;;;;5037435;28;20203;-42
2022/11/05 05:01:25;;;;;;;1.55;1.25;;;19.80;99.90;;;;;;5035090;28;20609;-43
2022/11/05 05:03:52;;;;;;;1.30;1.10;;;19.70;99.90;;;;;;5036501;28;20246;-42
2022/11/05 05:06:20;;;;;;;1.40;1.30;;;19.70;99.90;;;;;;5037289;28;20571;-42
2022/11/05 05:08:49;;;;;;;1.50;1.40;;;19.70;99.90;;;;;;5030404;28;20207;-42
2022/11/05 05:11:18;;;;;;;1.75;1.65;;;19.70;99.90;;;;;;5030121;28;20230;-43
2022/11/05 05:13:45;;;;;;;1.70;1.60;;;19.60;99.90;;;;;;5031274;28;20199;-43
2022/11/05 05:16:18;;;;;;;1.58;1.48;;;19.60;99.90;;;;;;5032566;28;20228;-42
2022/11/05 05:18:45;;;;;;;1.50;1.40;;;19.60;99.90;;;;;;5035286;28;20192;-42
2022/11/05 05:23:57;;;;;;;1.20;1.10;;;19.50;99.90;;;;;;5030194;28;20225;-43
2022/11/05 05:26:24;;;;;;;1.50;1.40;;;19.60;99.90;;;;;;5039063;28;20555;-42
2022/11/05 05:28:52;;;;;;;1.73;1.25;;;19.90;99.90;;;;;;5036622;28;20202;-42
2022/11/05 05:31:19;;;;;;;1.40;1.30;;;20.20;99.90;;;;;;5034816;28;20226;-42
2022/11/05 05:33:47;;;;;;;1.52;1.40;;;20.40;99.90;;;;;;5031685;28;20298;-42
2022/11/05 05:36:14;;;;;;;1.70;1.60;;;20.60;99.90;;;;;;5032790;28;20379;-42
2022/11/05 05:38:40;;;;;;;1.48;1.30;;;20.80;99.90;;;;;;5037466;28;20558;-42
2022/11/05 05:41:08;;;;;;;1.50;1.40;;;20.80;99.90;;;;;;5032638;28;20199;-42
2022/11/05 05:43:35;;;;;;;2.30;1.50;;;20.90;99.90;;;;;;5035266;28;20904;-42
2022/11/05 05:46:02;;;;;;;1.70;1.50;;;21.00;99.90;;;;;;5035054;28;20459;-43
2022/11/05 05:48:29;;;;;;;1.50;1.40;;;21.00;99.90;;;;;;5033869;28;20453;-42
2022/11/05 05:50:59;;;;;;;1.80;1.70;;;21.00;99.90;;;;;;5037550;28;20821;-43
2022/11/05 05:53:26;;;;;;;1.27;1.10;;;21.10;99.90;;;;;;5031577;28;20458;-42
2022/11/05 05:55:53;;;;;;;1.20;1.10;;;21.20;99.90;;;;;;5034582;28;20458;-42
2022/11/05 05:58:21;;;;;;;1.40;1.20;;;21.30;99.90;;;;;;5033875;28;20466;-43
2022/11/05 06:00:48;;;;;;;1.40;1.30;;;21.30;99.90;;;;;;5036322;28;20788;-42
2022/11/05 06:03:15;;;;;;;1.70;1.20;;;21.30;99.90;;;;;;5035474;28;20540;-43
2022/11/05 06:05:41;;;;;;;1.80;1.57;;;21.30;99.90;;;;;;5037620;28;20461;-43
2022/11/05 06:08:08;;;;;;;1.20;1.10;;;21.30;99.90;;;;;;5039801;28;20453;-42
2022/11/05 06:10:35;;;;;;;1.40;1.30;;;21.20;99.90;;;;;;5037507;28;20485;-43
2022/11/05 06:13:02;;;;;;;1.43;1.33;;;21.20;99.90;;;;;;5030996;28;20469;-43
2022/11/05 06:15:30;;;;;;;1.40;1.30;;;21.20;99.90;;;;;;5037748;28;20455;-43
2022/11/05 06:17:56;;;;;;;1.53;1.10;;;21.20;99.90;;;;;;5032266;28;20489;-42
2022/11/05 06:20:23;;;;;;;1.40;1.30;;;21.10;99.90;;;;;;5040662;28;20805;-43
2022/11/05 06:22:54;;;;;;;1.30;1.10;;;21.20;99.90;;;;;;5035464;28;20457;-43
2022/11/05 06:25:21;;;;;;;1.30;1.20;;;21.10;99.90;;;;;;5042159;28;21053;-43
2022/11/05 06:27:48;;;;;;;1.40;1.20;;;21.10;99.90;;;;;;5034636;28;20981;-43
2022/11/05 06:30:16;;;;;;;1.30;1.20;;;21.10;99.90;;;;;;5040647;28;20644;-42
2022/11/05 06:32:44;;;;;;;1.30;1.10;;;21.20;99.90;;;;;;5034408;28;20458;-42
2022/11/05 06:35:11;;;;;;;1.20;1.10;;;21.20;99.90;;;;;;5041433;28;20483;-42
2022/11/05 06:37:38;;;;;;;1.80;1.20;;;21.30;99.90;;;;;;5035427;28;20830;-42
2022/11/05 06:40:06;;;;;;;1.27;1.07;;;21.40;99.90;;;;;;5034918;28;20462;-43
2022/11/05 06:42:33;;;;;;;1.23;1.03;;;21.50;99.90;;;;;;5041952;28;20480;-42
2022/11/05 06:44:59;;;;;;;1.03;0.90;;;21.50;99.90;;;;;;5037627;28;20459;-42
2022/11/05 06:47:26;;;;;;;1.43;1.33;;;21.50;99.90;;;;;;5036368;28;20462;-42
2022/11/05 06:49:56;;;;;;;1.40;1.10;;;21.60;99.90;;;;;;5032995;28;20457;-43
2022/11/05 06:52:22;;;;;;;1.40;1.10;;;21.70;99.90;;;;;;5039348;28;20528;-42
2022/11/05 06:54:49;;;;;;;1.63;1.10;;;21.70;99.80;;;;;;5042049;28;20461;-42
2022/11/05 06:57:16;;;;;;;1.40;1.10;;;21.70;99.60;;;;;;5042793;28;20461;-43
2022/11/05 06:59:43;;;;;;;2.13;1.40;;;21.70;99.60;;;;;;5041002;28;20458;-43
2022/11/05 07:02:12;;;;;;;1.20;1.00;;;21.80;99.50;;;;;;5033577;28;20717;-43
2022/11/05 07:04:39;;;;;;;2.13;1.23;;;21.80;99.40;;;;;;5035137;28;20869;-42
2022/11/05 07:07:07;;;;;;;1.77;1.20;;;21.70;99.40;;;;;;5040624;28;20462;-42
2022/11/05 07:09:37;;;;;;;1.10;1.00;;;21.70;99.30;;;;;;5043231;28;20450;-42
2022/11/05 07:12:04;;;;;;;1.43;1.10;;;21.80;99.30;;;;;;5035254;28;20485;-42
2022/11/05 07:14:30;;;;;;;1.23;1.13;;;21.70;99.30;;;;;;5045915;28;20472;-43
2022/11/05 07:16:57;;;;;;;1.37;1.27;;;21.80;99.30;;;;;;5034785;28;20477;-42
2022/11/05 07:19:24;;;;;;;1.10;1.00;;;21.70;99.20;;;;;;5035179;28;20467;-42
2022/11/05 07:21:51;;;;;;;1.20;1.10;;;21.70;99.50;;;;;;5032273;28;20987;-42
2022/11/05 07:24:19;;;;;;;1.50;1.40;;;21.70;99.20;;;;;;5033793;28;20465;-42
2022/11/05 07:26:45;;;;;;;1.63;1.40;;;21.70;99.10;;;;;;5037954;28;20472;-43
2022/11/05 07:29:12;;;;;;;1.23;1.10;;;21.70;99.10;;;;;;5036026;28;20461;-43
2022/11/05 07:31:39;;;;;;;1.27;1.13;;;21.70;99.20;;;;;;5035552;28;20470;-43
2022/11/05 07:34:06;;;;;;;1.60;1.20;;;21.70;99.20;;;;;;5038473;28;20459;-42
2022/11/05 07:36:32;;;;;;;1.30;1.07;;;21.60;99.20;;;;;;5032379;28;20470;-43
2022/11/05 07:38:59;;;;;;;1.20;1.10;;;21.60;99.10;;;;;;5042938;28;20962;-42
2022/11/05 07:41:28;;;;;;;1.20;1.10;;;21.70;99.20;;;;;;5035400;28;20470;-43
2022/11/05 07:43:54;;;;;;;1.00;0.90;;;21.70;99.10;;;;;;5042178;28;20497;-42
2022/11/05 07:46:21;;;;;;;1.10;0.90;;;21.70;99.00;;;;;;5034676;28;20469;-42
2022/11/05 07:48:48;;;;;;;1.27;1.13;;;21.70;98.90;;;;;;5047800;28;20462;-42
2022/11/05 07:51:14;;;;;;;1.30;1.20;;;21.80;98.90;;;;;;5037307;28;20489;-43
2022/11/05 07:53:41;;;;;;;1.23;1.13;;;21.80;98.80;;;;;;5033190;28;20513;-43
2022/11/05 07:56:08;;;;;;;1.30;1.20;;;21.80;98.60;;;;;;5031067;28;20450;-43
2022/11/05 07:58:37;;;;;;;1.37;1.20;;;21.90;98.60;;;;;;5031350;28;20458;-43
2022/11/05 08:01:05;;;;;;;1.20;1.00;;;21.90;98.40;;;;;;5043229;28;20457;-43
2022/11/05 08:03:32;;;;;;;1.40;1.30;;;21.90;98.40;;;;;;5036418;28;20485;-43
2022/11/05 08:05:59;;;;;;;1.43;1.10;;;22.00;98.30;;;;;;5036074;28;20453;-43
2022/11/05 08:08:26;;;;;;;1.40;1.30;;;22.00;98.20;;;;;;5041851;28;20468;-42
2022/11/05 08:10:52;;;;;;;1.40;1.30;;;22.00;98.00;;;;;;5040103;28;20469;-43
2022/11/05 08:13:19;;;;;;;1.30;1.20;;;22.10;98.00;;;;;;5035008;28;20476;-42
2022/11/05 08:15:47;;;;;;;1.37;1.27;;;22.10;97.90;;;;;;5034670;28;20945;-42
2022/11/05 08:18:16;;;;;;;1.53;1.10;;;22.10;97.80;;;;;;5035373;28;20489;-43
2022/11/05 08:20:44;;;;;;;1.73;1.07;;;22.10;97.70;;;;;;5034718;28;20484;-43
2022/11/05 08:23:10;;;;;;;1.30;1.17;;;22.10;97.60;;;;;;5049963;28;20429;-43
2022/11/05 08:25:38;;;;;;;1.33;1.23;;;22.10;97.60;;;;;;5036489;28;20463;-43
2022/11/05 08:28:08;;;;;;;1.07;0.97;;;22.10;97.60;;;;;;5038123;28;20446;-43
2022/11/05 08:30:35;;;;;;;1.10;1.00;;;22.20;97.50;;;;;;5045605;28;20457;-43
2022/11/05 08:33:05;;;;;;;1.53;1.20;;;22.20;97.50;;;;;;5029923;28;20488;-42
2022/11/05 08:35:34;;;;;;;5.40;1.90;;;22.20;97.60;;;;;;5033132;28;20458;-39
2022/11/05 08:38:02;;;;;;;6.47;2.30;;;22.20;98.50;;;;;;5035748;28;20481;-39
2022/11/05 08:40:30;;;;;;;19.30;1.70;;;22.30;98.60;;;;;;5040519;28;20807;-38
2022/11/05 08:42:57;;;;;;;13.70;2.10;;;22.30;98.60;;;;;;5042037;28;20458;-39
2022/11/05 08:45:24;;;;;;;2.17;1.83;;;22.30;98.40;;;;;;5038042;28;20470;-39
2022/11/05 08:47:51;;;;;;;7.87;1.63;;;22.40;98.30;;;;;;5036355;28;20457;-39
2022/11/05 08:50:19;;;;;;;3.23;1.30;;;22.40;98.20;;;;;;5045426;28;20465;-40
2022/11/05 08:52:46;;;;;;;3.97;1.40;;;22.40;98.10;;;;;;5037462;28;20486;-41
2022/11/05 08:55:12;;;;;;;3.87;1.50;;;22.40;98.10;;;;;;5036733;28;20821;-38
2022/11/05 08:57:39;;;;;;;2.83;1.50;;;22.50;98.10;;;;;;5042208;28;20493;-41
2022/11/05 09:00:07;;;;;;;2.33;1.40;;;22.50;98.10;;;;;;5035988;28;20457;-41
2022/11/05 09:02:34;;;;;;;3.20;1.30;;;22.50;98.10;;;;;;5033522;28;20458;-39
2022/11/05 09:05:00;;;;;;;5.37;1.83;;;22.60;98.10;;;;;;5030562;28;20454;-37
2022/11/05 09:07:28;;;;;;;5.60;2.20;;;22.60;98.00;;;;;;5040176;28;20453;-35
2022/11/05 09:09:55;;;;;;;2.37;2.17;;;22.60;97.60;;;;;;5029448;28;20472;-40
2022/11/05 09:12:22;;;;;;;5.37;1.87;;;22.60;97.60;;;;;;5031554;28;20488;-39
2022/11/05 09:14:48;;;;;;;3.10;1.50;;;22.60;97.50;;;;;;5030987;28;20461;-39
2022/11/05 09:17:17;;;;;;;5.30;2.20;;;22.60;97.50;;;;;;5031047;28;20726;-37
2022/11/05 09:19:44;;;;;;;6.47;2.00;;;22.60;97.50;;;;;;5034930;28;20453;-39
2022/11/05 09:22:11;;;;;;;9.33;2.00;;;22.70;97.60;;;;;;5036736;28;20994;-38
2022/11/05 09:24:39;;;;;;;3.17;1.80;;;22.70;97.40;;;;;;5031752;28;20454;-40
2022/11/05 09:27:06;;;;;;;5.03;2.10;;;22.70;97.20;;;;;;5028117;28;20454;-40
2022/11/05 09:29:33;;;;;;;3.77;2.30;;;22.70;97.00;;;;;;5036359;28;20453;-38
2022/11/05 09:31:59;;;;;;;4.77;2.33;;;22.70;96.10;;;;;;5033180;28;20485;-38
2022/11/05 09:34:26;;;;;;;3.63;2.03;;;22.70;96.20;;;;;;5050642;28;20457;-40
2022/11/05 09:36:53;;;;;;;3.93;1.90;;;22.70;96.20;;;;;;5037996;28;20458;-39
2022/11/05 09:39:20;;;;;;;3.20;1.80;;;22.70;96.30;;;;;;5048051;28;20462;-38
2022/11/05 09:41:49;;;;;;;2.60;1.33;;;22.60;96.30;;;;;;5034759;28;20467;-40
2022/11/05 09:44:18;;;;;;;2.47;1.73;;;22.60;96.30;;;;;;5037935;28;20454;-41
2022/11/05 09:46:47;;;;;;;4.50;1.63;;;22.50;96.20;;;;;;5034271;28;20470;-40
2022/11/05 09:49:24;;;;;;;6.67;2.50;;;22.50;96.20;;;;;;5036009;28;20464;-39
2022/11/05 09:51:51;;;;;;;4.40;1.83;;;22.50;96.20;;;;;;5033692;28;20559;-41
2022/11/05 09:54:21;;;;;;;4.93;1.60;;;22.50;96.20;;;;;;5038996;28;20455;-39
2022/11/05 09:56:49;;;;;;;4.00;1.60;;;22.50;96.30;;;;;;5035580;28;20459;-39
2022/11/05 09:59:19;;;;;;;1.67;1.57;;;22.50;96.30;;;;;;5039893;28;20473;-39
2022/11/05 10:01:47;;;;;;;1.90;1.70;;;22.50;96.30;;;;;;5034992;28;20469;-39
2022/11/05 10:04:18;;;;;;;2.13;1.93;;;22.60;96.30;;;;;;5032006;28;20462;-41
2022/11/05 10:06:49;;;;;;;2.40;1.60;;;22.60;96.10;;;;;;5032742;28;20454;-41
2022/11/05 10:09:21;;;;;;;1.30;1.20;;;22.60;96.10;;;;;;5031804;28;20470;-40
2022/11/05 10:11:54;;;;;;;3.17;1.97;;;22.70;95.90;;;;;;5039216;28;20474;-41
2022/11/05 10:14:25;;;;;;;2.00;1.30;;;22.80;95.80;;;;;;5031685;28;20473;-41
2022/11/05 10:16:56;;;;;;;3.80;1.87;;;22.80;95.60;;;;;;5040146;28;20473;-39
2022/11/05 10:19:25;;;;;;;1.87;1.47;;;22.80;95.50;;;;;;5040342;28;20450;-40
2022/11/05 10:21:55;;;;;;;3.77;1.63;;;22.90;95.40;;;;;;5032482;28;20465;-39
2022/11/05 10:24:22;;;;;;;2.20;1.90;;;22.90;95.30;;;;;;5034423;28;20458;-41
2022/11/05 10:26:52;;;;;;;1.90;1.73;;;22.90;95.30;;;;;;5039897;28;20461;-39
2022/11/05 10:29:25;;;;;;;8.77;1.97;;;22.90;95.30;;;;;;5042384;28;20464;-38
2022/11/05 10:31:54;;;;;;;2.37;2.10;;;22.90;95.10;;;;;;5038834;28;20478;-41
2022/11/05 10:34:23;;;;;;;14.77;2.30;;;22.90;95.10;;;;;;5049515;28;20457;-35
2022/11/05 10:36:50;;;;;;;6.27;2.23;;;22.80;94.40;;;;;;5036283;28;20466;-39
2022/11/05 10:39:18;;;;;;;6.30;1.83;;;22.80;95.10;;;;;;5033382;28;21004;-39
2022/11/05 10:42:06;;;;;;;5.10;2.30;;;22.70;95.40;;;;;;5031749;28;20469;-42
2022/11/05 10:44:39;;;;;;;2.30;2.10;;;22.60;95.90;;;;;;5036231;28;20454;-44
2022/11/05 10:47:22;;;;;;;3.60;1.90;;;22.60;96.20;;;;;;5041445;28;20458;-39
2022/11/05 10:49:57;;;;;;;5.20;2.10;;;22.50;96.40;;;;;;5044171;28;20460;-39
2022/11/05 10:52:26;;;;;;;3.10;1.77;;;22.60;96.60;;;;;;5038062;28;20636;-39
2022/11/05 10:54:58;;;;;;;3.80;2.17;;;22.70;96.50;;;;;;5031373;28;20544;-35
2022/11/05 10:57:34;;;;;;;6.93;2.50;;;22.70;96.30;;;;;;5036257;28;21018;-36
2022/11/05 11:00:28;;;;;;;6.23;2.50;;;22.70;96.20;;;;;;5037016;28;20464;-40
2022/11/05 11:02:57;;;;;;;4.23;2.20;;;22.70;96.40;;;;;;5038541;28;20463;-37
2022/11/05 11:05:27;;;;;;;6.50;2.60;;;22.70;96.60;;;;;;5034363;28;20466;-42
2022/11/05 11:08:04;;;;;;;5.00;2.50;;;22.70;96.90;;;;;;5032128;28;20496;-34
2022/11/05 11:10:47;;;;;;;9.73;2.37;;;22.70;97.10;;;;;;5034779;28;20465;-35
2022/11/05 11:13:20;;;;;;;8.63;2.97;;;22.80;97.20;;;;;;5030857;28;20453;-34
2022/11/05 11:15:49;;;;;;;5.00;2.13;;;22.80;97.50;;;;;;5035823;28;20470;-38
2022/11/05 11:18:30;;;;;;;4.17;2.47;;;22.80;97.60;;;;;;5035728;28;20836;-37
2022/11/05 11:21:06;;;;;;;3.80;2.43;;;22.80;97.50;;;;;;5037181;28;20965;-38
2022/11/05 11:23:37;;;;;;;10.33;2.77;;;22.80;97.20;;;;;;5038744;28;20467;-38
2022/11/05 11:26:04;;;;;;;2.23;2.00;;;22.80;96.50;;;;;;5033492;28;20466;-35
2022/11/05 11:28:34;;;;;;;6.33;1.70;;;22.80;96.20;;;;;;5037738;28;20457;-35
2022/11/05 11:31:07;;;;;;;5.60;2.40;;;22.80;96.00;;;;;;5035127;28;20474;-38
2022/11/05 11:33:34;;;;;;;7.43;1.90;;;22.80;95.90;;;;;;5032648;28;20838;-35
2022/11/05 11:36:01;;;;;;;1.83;1.53;;;22.80;95.90;;;;;;5038875;28;20454;-34
2022/11/05 11:38:30;;;;;;;6.37;1.77;;;22.80;95.80;;;;;;5034315;28;20454;-35
2022/11/05 11:41:05;;;;;;;3.83;2.00;;;22.80;95.80;;;;;;5032889;28;20465;-35
2022/11/05 11:43:36;;;;;;;3.10;1.70;;;22.80;95.80;;;;;;5037864;28;20461;-39
2022/11/05 11:46:11;;;;;;;5.27;1.77;;;22.80;95.80;;;;;;5040716;28;20907;-40
2022/11/05 11:48:41;;;;;;;3.90;2.00;;;22.80;95.70;;;;;;5032911;28;20469;-34
2022/11/05 11:51:18;;;;;;;3.20;1.83;;;22.80;95.70;;;;;;5039731;28;20876;-35
2022/11/05 11:53:46;;;;;;;2.10;1.90;;;22.80;95.60;;;;;;5037680;28;20849;-34
2022/11/05 11:56:16;;;;;;;4.20;1.93;;;22.80;95.70;;;;;;5032745;28;20461;-37
2022/11/05 11:58:45;;;;;;;4.53;2.20;;;22.90;95.60;;;;;;5039886;28;20480;-35
2022/11/05 12:01:50;;;;;;;1.90;1.60;;;22.90;95.70;;;;;;5032394;28;20459;-35
2022/11/05 12:04:38;;;;;;;2.20;1.67;;;22.90;95.60;;;;;;5035137;28;20488;-36
2022/11/05 12:07:13;;;;;;;4.27;1.70;;;23.00;95.50;;;;;;5031355;28;20462;-33
2022/11/05 12:09:54;;;;;;;3.90;2.17;;;23.00;95.40;;;;;;5028798;28;20454;-32
2022/11/05 12:12:28;;;;;;;3.50;1.70;;;23.00;95.40;;;;;;5032212;28;20478;-32
2022/11/05 12:14:58;;;;;;;2.70;1.73;;;23.00;95.30;;;;;;5041525;28;20469;-33
2022/11/05 12:17:35;;;;;;;4.73;1.70;;;23.00;95.20;;;;;;5034679;28;20500;-33
2022/11/05 12:20:21;;;;;;;4.57;1.83;;;23.10;95.20;;;;;;5038105;28;20485;-35
2022/11/05 12:23:07;;;;;;;3.87;2.10;;;23.10;95.10;;;;;;5028989;28;20468;-41
2022/11/05 12:25:40;;;;;;;4.67;1.90;;;23.10;95.10;;;;;;5030883;28;20462;-42
2022/11/05 12:28:23;;;;;;;3.77;1.80;;;23.10;95.20;;;;;;5032811;28;20464;-41
2022/11/05 12:30:56;;;;;;;3.20;1.93;;;23.00;95.20;;;;;;5037564;28;20460;-42
2022/11/05 12:33:33;;;;;;;6.37;2.00;;;23.00;95.20;;;;;;5034053;28;20848;-40
2022/11/05 12:36:08;;;;;;;6.30;2.07;;;23.10;95.30;;;;;;5038457;28;20466;-41
2022/11/05 12:39:01;;;;;;;3.53;1.70;;;23.00;95.30;;;;;;5036192;28;20466;-41
2022/11/05 12:41:33;;;;;;;3.83;1.80;;;23.00;95.40;;;;;;5045395;28;20465;-44
2022/11/05 12:44:24;;;;;;;3.63;1.70;;;23.00;95.30;;;;;;5034481;28;20507;-43
2022/11/05 12:47:03;;;;;;;4.77;1.90;;;23.10;95.40;;;;;;5031682;28;20454;-44
2022/11/05 12:49:52;;;;;;;4.57;1.60;;;23.00;95.30;;;;;;5031710;28;20470;-43
2022/11/05 12:52:37;;;;;;;2.80;1.60;;;23.00;95.40;;;;;;5033684;28;20477;-42
2022/11/05 12:55:09;;;;;;;2.03;1.70;;;23.10;95.50;;;;;;5033410;28;20458;-43
2022/11/05 12:57:40;;;;;;;4.30;2.47;;;23.10;95.40;;;;;;5029247;28;20454;-42
2022/11/05 13:00:14;;;;;;;3.10;1.50;;;23.10;95.50;;;;;;5033336;28;20462;-43
2022/11/05 13:02:47;;;;;;;2.30;1.90;;;23.10;95.40;;;;;;5038309;28;20456;-42
2022/11/05 13:05:19;;;;;;;1.90;1.70;;;23.10;95.40;;;;;;5031220;28;20462;-42
2022/11/05 13:07:54;;;;;;;5.93;1.77;;;23.10;95.50;;;;;;5030436;28;20466;-42
2022/11/05 13:10:28;;;;;;;2.63;1.70;;;23.10;95.50;;;;;;5033086;28;20457;-43
2022/11/05 13:13:02;;;;;;;3.00;1.93;;;23.10;95.60;;;;;;5032453;28;20486;-43
2022/11/05 13:15:33;;;;;;;2.53;1.63;;;23.10;95.60;;;;;;5036508;28;20579;-42
2022/11/05 13:18:05;;;;;;;5.20;2.00;;;23.10;95.60;;;;;;5032417;28;20485;-42
2022/11/05 13:20:37;;;;;;;3.70;1.77;;;23.10;95.60;;;;;;5028055;28;20532;-42
2022/11/05 13:23:11;;;;;;;3.50;1.47;;;23.10;95.60;;;;;;5035488;28;20468;-42
2022/11/05 13:25:41;;;;;;;4.03;1.80;;;23.10;95.60;;;;;;5029878;28;22138;-42
2022/11/05 13:28:17;;;;;;;2.23;1.70;;;23.00;95.60;;;;;;5035991;28;20458;-42
2022/11/05 13:30:50;;;;;;;3.37;1.87;;;23.10;95.70;;;;;;5037325;28;20477;-42
2022/11/05 13:33:22;;;;;;;2.90;1.37;;;23.10;95.60;;;;;;5038523;28;20481;-42
2022/11/05 13:41:34;;;;;;;6.63;1.90;;;23.10;95.50;;;;;;5031784;28;20461;-42
2022/11/05 13:44:17;;;;;;;1.73;1.63;;;23.10;95.60;;;;;;5036959;28;20942;-42
2022/11/05 13:46:59;;;;;;;2.90;1.70;;;23.10;95.50;;;;;;5037478;28;20811;-42
2022/11/05 13:49:51;;;;;;;2.70;1.70;;;23.10;95.50;;;;;;5033856;28;20822;-42